RJAZ(METAR)
06/25 14:00
RJAZ 250500Z 10010KT 9999 FEW020 BKNXXX 24/20 Q1017 RMK A3003=
戻る
トップページへ戻る
IMOC Co,.Ltd.